Etusivu
METAR-TAF:

METAR-TAF

Lentoasemat :

Trondheimin lentoasema

Trondheim, Norja

Leveyspiiri: 63-28N, Pituuspiiri: 010-56E, korkeus merenpinnasta: 1 m

Tämänhetkinen sää

Tämä raportti tehtiin 23 minuuttia sitten, kello 04.20 UTC
Tuuli 6 kn kaakosta
Lämpötila 12°C
Kosteus 94%
Ilmanpaine 1008 hPa
Näkyvyys 10 km tai enemmän
ei pilviä alle 1500 m:ssä eikä cumulonimbus-pilviä

METAR: ENVA 220420Z 13006KT CAVOK 12/11 Q1008 RMK WIND 670FT 15004KT

Aika: 06:43 (04:43 UTC)

Sääennuste

Ennuste voimassa 22. päivästä klo 00 UTC - 22. päivään klo 24 UTC
Tuuli 5 kn eri suunnista
Näkyvyys 10 km tai enemmän
Muutamia pilviä 3000 ft:n korkeudessa
Hajanaisia pilviä 8000 ft:n korkeudessa
Tulossa
22. päivästä klo 10 UTC - 22. päivään klo 12 UTC
Tuuli 10 kn lännestä

TAF: ENVA 2200/2224 VRB05KT 9999 FEW030 SCT080 BECMG 2210/2212 28010KT

Säähavainnot ja -ennusteet yli 4000 lentoasemalta (METAR- ja TAF-raportit).

Käytössä olevat sääasemat on merkitty karttaan keltaisilla ja punaisilla pisteillä.

Aseta hiiri pisteen päälle nähdäksesi sääaseman nimen.

Klikkaa sitten nähdäksesi säähavainnot ja -ennusteet.

Kartan vaihtaminen: klikkaa mustalla rastilla varustettuja vihreitä pisteitä, niin voit zoomata sisään; viivalla varustettua vihreää pistettä, niin voit zoomata ulos tai vihreitä nuolia, niin pääset viereisille kartoille.


METAR-TAF: